Time;durP1;ratioP1;P1;durP2;ratioP2;P2;SDS_P1;SDS_P2;PMS_P1;PMS_P2;Temp;Humidity;BMP_temperature;BMP_pressure;BME280_temperature;BME280_humidity;BME280_pressure;Samples;Min_cycle;Max_cycle;Signal;HPM_P1;HPM_P2
2022/01/20 00:01:42;;;;;;;;;29.25;25.75;;;;;8.84;71.09;102429.66;5107964;27;45526;-72
2022/01/20 00:04:20;;;;;;;;;31.00;27.00;;;;;8.58;71.15;102391.25;5115365;27;45840;-72
2022/01/20 00:23:42;;;;;;;;;29.50;24.50;;;;;8.81;70.87;102449.59;5113829;27;45602;-72
2022/01/20 00:26:06;;;;;;;;;25.75;24.25;;;;;8.86;70.86;102464.59;5113194;27;45586;-73
2022/01/20 00:28:42;;;;;;;;;29.00;22.25;;;;;8.86;70.72;102448.03;5114043;27;46381;-71
2022/01/20 00:33:43;;;;;;;;;27.25;23.75;;;;;8.71;70.81;102417.00;5115012;27;45552;-72
2022/01/20 00:38:37;;;;;;;;;30.75;26.25;;;;;8.76;70.61;102428.50;5120734;27;45515;-73
2022/01/20 00:41:04;;;;;;;;;25.00;22.50;;;;;8.66;70.53;102402.88;5108442;27;46486;-71
2022/01/20 00:43:30;;;;;;;;;24.75;22.50;;;;;8.55;70.17;102386.81;5113042;27;45642;-71
2022/01/20 00:45:56;;;;;;;;;26.75;25.50;;;;;8.72;70.59;102421.38;5117413;27;45582;-71
2022/01/20 00:48:22;;;;;;;;;27.75;23.75;;;;;8.70;70.75;102425.66;5117909;27;46013;-72
2022/01/20 00:50:48;;;;;;;;;30.50;29.75;;;;;8.33;70.61;102373.75;5112232;27;45964;-72
2022/01/20 00:53:14;;;;;;;;;32.75;29.00;;;;;8.68;70.62;102432.56;5113543;27;46492;-71
2022/01/20 00:55:40;;;;;;;;;28.00;27.75;;;;;8.61;70.34;102415.78;5123170;27;45575;-70
2022/01/20 00:58:10;;;;;;;;;29.50;28.25;;;;;8.52;70.33;102411.91;5112226;27;45693;-70
2022/01/20 01:00:36;;;;;;;;;32.00;28.00;;;;;8.53;70.32;102411.09;5112780;27;46652;-71
2022/01/20 01:03:02;;;;;;;;;34.25;28.50;;;;;8.64;70.37;102428.94;5102124;27;45520;-70
2022/01/20 01:05:28;;;;;;;;;29.50;25.50;;;;;8.54;69.94;102408.53;5098903;27;45676;-70
2022/01/20 01:07:56;;;;;;;;;25.25;24.00;;;;;8.61;69.87;102421.00;5114071;27;45843;-70
2022/01/20 01:10:28;;;;;;;;;23.00;21.00;;;;;8.61;69.98;102441.00;5096461;27;47366;-70
2022/01/20 01:13:09;;;;;;;;;28.00;25.25;;;;;8.59;69.91;102445.25;5118624;27;45592;-72
2022/01/20 01:15:42;;;;;;;;;30.25;24.00;;;;;8.05;69.67;102346.63;5116416;27;45915;-73
2022/01/20 01:23:36;;;;;;;;;28.00;25.00;;;;;8.25;69.51;102405.69;5116513;27;45885;-72
2022/01/20 01:26:08;;;;;;;;;24.50;22.25;;;;;8.46;69.36;102450.03;5113936;27;45856;-73
2022/01/20 01:28:34;;;;;;;;;17.50;17.50;;;;;8.27;68.80;102430.13;5112287;27;45957;-72
2022/01/20 01:33:35;;;;;;;;;21.25;18.75;;;;;8.46;68.66;102468.31;5108057;27;46089;-71
2022/01/20 01:36:04;;;;;;;;;23.25;17.50;;;;;8.19;68.82;102428.06;5116622;27;45907;-69
2022/01/20 01:38:39;;;;;;;;;26.50;20.75;;;;;8.11;69.01;102419.03;5116340;27;45611;-71
2022/01/20 01:41:33;;;;;;;;;20.50;17.75;;;;;8.43;68.73;102480.38;5115661;27;47543;-71
2022/01/20 01:44:05;;;;;;;;;17.50;14.50;;;;;8.41;68.69;102477.69;5122089;27;45872;-71
2022/01/20 01:46:38;;;;;;;;;16.00;15.25;;;;;8.40;68.43;102490.69;5112970;27;46494;-72
2022/01/20 01:49:05;;;;;;;;;15.50;14.25;;;;;8.39;68.37;102489.75;5110497;27;45882;-71
2022/01/20 01:51:31;;;;;;;;;16.75;16.75;;;;;7.92;68.30;102413.09;5111455;27;45910;-70
2022/01/20 01:53:56;;;;;;;;;16.00;14.00;;;;;8.19;68.89;102462.88;5106690;27;46500;-71
2022/01/20 01:56:25;;;;;;;;;15.25;15.25;;;;;8.31;68.60;102496.41;5109893;27;46003;-71
2022/01/20 01:58:51;;;;;;;;;22.50;15.50;;;;;8.11;68.62;102464.28;5112295;27;45917;-71
2022/01/20 02:01:16;;;;;;;;;20.25;16.50;;;;;8.27;68.15;102510.16;5107989;27;46358;-71
2022/01/20 02:03:47;;;;;;;;;19.00;16.25;;;;;8.33;68.33;102518.25;5111456;27;46215;-71
2022/01/20 02:09:43;;;;;;;;;20.75;17.25;;;;;8.32;67.98;102526.91;5012228;28;45424;-71
2022/01/20 02:17:59;;;;;;;;;19.50;14.50;;;;;8.27;68.00;102529.34;5114201;27;46023;-71
2022/01/20 02:20:25;;;;;;;;;17.75;13.50;;;;;8.15;68.11;102515.78;5115838;27;45486;-70
2022/01/20 02:22:51;;;;;;;;;16.25;13.50;;;;;8.25;67.90;102536.19;5113912;27;46847;-71
2022/01/20 02:25:19;;;;;;;;;15.00;11.50;;;;;8.16;67.25;102521.88;5112979;27;46975;-72
2022/01/20 02:27:45;;;;;;;;;17.75;15.75;;;;;8.04;67.78;102494.50;5117045;27;46807;-72
2022/01/20 02:30:13;;;;;;;;;20.75;14.00;;;;;8.23;67.90;102526.53;5112605;27;45743;-71
2022/01/20 02:32:39;;;;;;;;;17.00;11.75;;;;;8.23;67.99;102540.50;5114355;27;45643;-71
2022/01/20 02:35:08;;;;;;;;;14.00;11.00;;;;;8.09;67.09;102523.34;5099957;27;46544;-70
2022/01/20 02:37:34;;;;;;;;;17.00;13.25;;;;;8.20;67.47;102547.31;5109473;27;46505;-71
2022/01/20 02:45:25;;;;;;;;;12.75;12.00;;;;;8.15;66.90;102541.00;5105892;27;45525;-70
2022/01/20 02:47:50;;;;;;;;;15.75;13.50;;;;;8.15;66.71;102533.19;5103805;27;45909;-70
2022/01/20 02:50:16;;;;;;;;;6.50;6.25;;;;;7.97;66.54;102509.81;5112833;27;45613;-72
2022/01/20 02:52:42;;;;;;;;;19.25;11.00;;;;;7.99;66.94;102497.72;5102893;27;46745;-71
2022/01/20 02:55:08;;;;;;;;;18.00;12.75;;;;;8.05;67.16;102514.53;5093933;27;46400;-72
2022/01/20 02:57:34;;;;;;;;;15.25;12.00;;;;;8.14;66.70;102526.16;5108692;27;45537;-69
2022/01/20 03:00:07;;;;;;;;;15.00;10.75;;;;;7.98;66.55;102503.78;5116984;27;46077;-72
2022/01/20 03:02:32;;;;;;;;;17.00;11.75;;;;;8.11;66.57;102520.81;5110036;27;46135;-71
2022/01/20 03:04:58;;;;;;;;;9.75;8.25;;;;;8.08;66.39;102519.88;5111772;27;45549;-72
2022/01/20 03:07:24;;;;;;;;;12.00;12.00;;;;;7.81;66.47;102483.09;5115733;27;45546;-72
2022/01/20 03:09:50;;;;;;;;;11.50;9.00;;;;;8.07;66.27;102525.03;5114169;27;45625;-70
2022/01/20 03:12:15;;;;;;;;;13.00;10.50;;;;;7.56;66.56;102442.06;5114593;27;46503;-71
2022/01/20 03:14:42;;;;;;;;;10.00;10.00;;;;;7.92;66.26;102511.34;5109211;27;45904;-70
2022/01/20 03:17:07;;;;;;;;;9.50;7.75;;;;;7.91;66.12;102517.41;5116201;27;45990;-71
2022/01/20 03:19:34;;;;;;;;;10.00;10.00;;;;;7.64;66.04;102487.63;5112876;27;45615;-71
2022/01/20 03:21:59;;;;;;;;;13.00;10.25;;;;;7.88;65.85;102530.31;5113378;27;47038;-71
2022/01/20 03:24:25;;;;;;;;;9.75;7.50;;;;;7.73;65.77;102509.69;5109835;27;45816;-70
2022/01/20 03:26:51;;;;;;;;;11.25;8.75;;;;;7.40;65.30;102457.88;5106202;27;46098;-70
2022/01/20 03:29:22;;;;;;;;;12.00;9.00;;;;;7.93;65.29;102558.38;5113012;27;45799;-71
2022/01/20 03:32:10;;;;;;;;;11.25;6.00;;;;;7.91;65.61;102553.94;5109180;27;45676;-71
2022/01/20 03:34:36;;;;;;;;;9.00;8.75;;;;;7.82;65.36;102536.16;5107763;27;45582;-70
2022/01/20 03:37:03;;;;;;;;;13.00;8.00;;;;;7.89;64.89;102551.25;5111297;27;45547;-70
2022/01/20 03:39:42;;;;;;;;;9.75;9.75;;;;;7.52;65.16;102499.25;5109712;27;45657;-69
2022/01/20 03:42:08;;;;;;;;;12.00;7.00;;;;;7.68;65.34;102530.38;5113125;27;46249;-71
2022/01/20 03:44:34;;;;;;;;;13.75;8.75;;;;;7.75;65.65;102549.78;5116846;27;45688;-71
2022/01/20 03:47:02;;;;;;;;;14.00;9.00;;;;;7.66;64.98;102532.00;5116490;27;46477;-71
2022/01/20 03:49:53;;;;;;;;;8.75;6.00;;;;;7.59;65.51;102517.84;5114253;27;45595;-71
2022/01/20 03:52:28;;;;;;;;;10.25;8.00;;;;;7.76;65.53;102557.69;5110115;27;47247;-71
2022/01/20 03:54:54;;;;;;;;;9.75;8.00;;;;;7.73;64.51;102548.81;5115131;27;45964;-71
2022/01/20 03:57:19;;;;;;;;;7.50;7.00;;;;;7.60;65.11;102536.97;5114059;27;45918;-71
2022/01/20 03:59:46;;;;;;;;;8.50;7.00;;;;;7.60;64.42;102531.75;5109401;27;45997;-72
2022/01/20 04:02:12;;;;;;;;;7.25;7.00;;;;;7.74;64.88;102554.13;5094320;27;45716;-70
2022/01/20 04:04:40;;;;;;;;;8.75;6.00;;;;;7.59;64.56;102540.41;5093730;27;45883;-70
2022/01/20 04:07:11;;;;;;;;;7.50;6.00;;;;;7.72;64.85;102567.91;5095701;27;46403;-71
2022/01/20 04:09:36;;;;;;;;;7.50;6.50;;;;;7.58;64.88;102560.38;5112685;27;45662;-72
2022/01/20 04:12:02;;;;;;;;;11.00;7.00;;;;;7.68;65.08;102581.63;5113078;27;46252;-71
2022/01/20 04:14:31;;;;;;;;;8.50;8.25;;;;;7.44;64.77;102538.91;5114166;27;46610;-71
2022/01/20 04:19:26;;;;;;;;;9.75;7.25;;;;;7.63;65.19;102573.63;5110955;27;45555;-71
2022/01/20 04:21:58;;;;;;;;;8.75;7.50;;;;;7.65;64.82;102593.72;5105731;27;45662;-71
2022/01/20 04:24:24;;;;;;;;;8.75;7.00;;;;;7.61;65.25;102590.91;5114565;27;45876;-73
2022/01/20 04:26:50;;;;;;;;;11.00;9.25;;;;;7.65;65.09;102601.53;5116696;27;45881;-72
2022/01/20 04:29:17;;;;;;;;;9.50;8.75;;;;;7.67;64.91;102596.41;5110288;27;46731;-71
2022/01/20 04:31:50;;;;;;;;;9.00;7.00;;;;;7.66;64.90;102589.38;5113942;27;46016;-71
2022/01/20 04:34:16;;;;;;;;;8.75;7.00;;;;;7.65;65.62;102587.63;5110015;27;45548;-72
2022/01/20 04:36:45;;;;;;;;;9.75;7.50;;;;;7.67;64.92;102598.13;5113331;27;45834;-71
2022/01/20 04:39:16;;;;;;;;;10.00;8.50;;;;;7.65;65.00;102591.09;5093107;27;45536;-72
2022/01/20 04:41:42;;;;;;;;;11.25;6.50;;;;;7.56;65.08;102566.34;5112258;27;46073;-71
2022/01/20 04:44:17;;;;;;;;;10.75;6.75;;;;;7.61;64.86;102583.97;5096010;27;46210;-72
2022/01/20 04:47:00;;;;;;;;;8.00;6.00;;;;;7.51;64.66;102580.91;5113238;27;47574;-71
2022/01/20 04:57:49;;;;;;;;;11.25;8.00;;;;;7.22;65.17;102539.69;5035526;27;45874;-71
2022/01/20 05:00:15;;;;;;;;;5.25;5.00;;;;;7.49;64.95;102582.56;5113125;27;46478;-71
2022/01/20 05:02:44;;;;;;;;;10.25;7.75;;;;;7.52;64.68;102591.41;5122921;27;46559;-71
2022/01/20 05:05:12;;;;;;;;;9.25;6.00;;;;;7.55;64.69;102593.25;5114432;27;45936;-71
2022/01/20 05:07:38;;;;;;;;;9.50;6.50;;;;;7.32;64.82;102540.09;5096734;27;45589;-72
2022/01/20 05:10:07;;;;;;;;;7.00;7.00;;;;;7.27;64.85;102557.25;5116092;27;45744;-71
2022/01/20 05:13:02;;;;;;;;;10.25;7.00;;;;;7.44;64.58;102571.91;5120483;27;46019;-69
2022/01/20 05:15:23;;;;;;;;;7.75;5.00;;;;;7.44;64.84;102597.97;5118297;27;45667;-70
2022/01/20 05:17:50;;;;;;;;;9.00;7.50;;;;;7.38;64.56;102582.06;5114529;27;45676;-71
2022/01/20 05:20:16;;;;;;;;;9.75;8.00;;;;;7.37;64.72;102582.91;5113371;27;45660;-71
2022/01/20 05:22:42;;;;;;;;;12.00;8.00;;;;;7.48;64.54;102588.59;5117660;27;45725;-71
2022/01/20 05:25:08;;;;;;;;;8.00;7.00;;;;;7.16;64.52;102528.09;5113529;27;45652;-71
2022/01/20 05:27:34;;;;;;;;;7.50;6.75;;;;;7.23;64.83;102551.00;5121288;27;45649;-71
2022/01/20 05:30:00;;;;;;;;;6.00;6.00;;;;;7.38;63.78;102579.44;5113847;27;46141;-72
2022/01/20 05:32:26;;;;;;;;;7.50;6.75;;;;;7.50;64.29;102592.13;5116249;27;46560;-71
2022/01/20 05:34:52;;;;;;;;;8.25;7.00;;;;;7.28;64.38;102562.50;5117045;27;45560;-71
2022/01/20 05:37:18;;;;;;;;;6.50;6.00;;;;;7.09;64.69;102532.13;5113670;27;46659;-71
2022/01/20 05:39:44;;;;;;;;;7.50;6.00;;;;;6.89;64.13;102499.09;5112667;27;45979;-72
2022/01/20 05:42:10;;;;;;;;;8.50;5.00;;;;;7.38;63.99;102582.06;5115287;27;45964;-70
2022/01/20 05:44:36;;;;;;;;;7.50;6.00;;;;;7.22;63.90;102559.66;5120242;27;45678;-72
2022/01/20 05:47:09;;;;;;;;;9.50;7.25;;;;;7.49;63.95;102606.91;5118709;27;45931;-71
2022/01/20 05:49:35;;;;;;;;;7.75;4.25;;;;;6.99;63.75;102528.22;5116524;27;45855;-70
2022/01/20 05:52:01;;;;;;;;;7.75;6.00;;;;;7.32;64.06;102581.81;5113379;27;45952;-72
2022/01/20 05:54:26;;;;;;;;;10.75;8.00;;;;;7.44;63.61;102609.31;5116832;27;45975;-71
2022/01/20 05:56:52;;;;;;;;;11.00;7.50;;;;;7.53;64.16;102619.25;5112326;27;46285;-72
2022/01/20 05:59:18;;;;;;;;;11.75;9.00;;;;;7.50;63.37;102618.22;5095486;27;46622;-70
2022/01/20 06:01:51;;;;;;;;;12.25;10.00;;;;;7.50;64.01;102619.13;5117034;27;47317;-71
2022/01/20 06:04:17;;;;;;;;;10.00;6.50;;;;;7.40;64.11;102601.28;5114163;27;45475;-70
2022/01/20 06:06:44;;;;;;;;;7.25;7.00;;;;;7.54;63.56;102634.06;5120391;27;45582;-70
2022/01/20 06:09:10;;;;;;;;;7.75;7.00;;;;;7.25;63.51;102585.84;5119408;27;46028;-70
2022/01/20 06:11:35;;;;;;;;;8.50;5.75;;;;;7.54;63.47;102636.69;5115944;27;47049;-71
2022/01/20 06:14:01;;;;;;;;;7.75;5.75;;;;;7.53;63.53;102640.13;5109820;27;45470;-71
2022/01/20 06:16:27;;;;;;;;;5.50;5.00;;;;;7.47;63.28;102624.19;5114530;27;45859;-71
2022/01/20 06:18:52;;;;;;;;;11.25;8.00;;;;;7.49;63.04;102626.88;5119448;27;45989;-71
2022/01/20 06:21:18;;;;;;;;;11.00;7.25;;;;;7.43;63.14;102622.28;5118518;27;46211;-70
2022/01/20 06:23:51;;;;;;;;;9.75;6.50;;;;;7.52;63.18;102640.97;5118916;27;45690;-70
2022/01/20 06:26:17;;;;;;;;;7.00;5.00;;;;;7.52;62.69;102651.38;5100607;27;46102;-71
2022/01/20 06:28:43;;;;;;;;;6.00;5.00;;;;;7.51;62.75;102646.09;5115540;27;45988;-70
2022/01/20 06:31:10;;;;;;;;;6.50;5.25;;;;;7.50;63.14;102645.22;5118851;27;45998;-71
2022/01/20 06:33:36;;;;;;;;;9.25;4.75;;;;;7.38;62.60;102629.91;5112567;27;45782;-72
2022/01/20 06:36:02;;;;;;;;;5.75;4.00;;;;;7.49;62.71;102651.22;5098679;27;45897;-71
2022/01/20 06:38:28;;;;;;;;;8.75;5.00;;;;;7.50;63.08;102653.03;5098869;27;45871;-71
2022/01/20 06:40:54;;;;;;;;;4.75;3.00;;;;;7.45;62.75;102641.50;5119498;27;45500;-72
2022/01/20 06:43:19;;;;;;;;;5.25;5.00;;;;;7.31;63.02;102627.84;5115142;27;45872;-70
2022/01/20 06:45:45;;;;;;;;;7.00;5.00;;;;;7.48;62.54;102654.66;5116720;27;45790;-72
2022/01/20 06:48:11;;;;;;;;;8.00;3.50;;;;;7.42;62.58;102652.66;5112227;27;45814;-71
2022/01/20 06:50:37;;;;;;;;;5.75;5.00;;;;;7.43;62.66;102645.75;5119354;27;45882;-70
2022/01/20 06:53:03;;;;;;;;;6.00;4.00;;;;;7.33;62.45;102635.72;5119183;27;46166;-70
2022/01/20 06:55:28;;;;;;;;;9.50;8.00;;;;;7.12;62.72;102615.69;5120353;27;45538;-70
2022/01/20 06:57:54;;;;;;;;;7.25;5.75;;;;;7.13;62.52;102627.88;5103464;27;45702;-71
2022/01/20 07:00:23;;;;;;;;;5.50;4.25;;;;;7.40;62.73;102689.91;5113372;27;46397;-72
2022/01/20 07:02:49;;;;;;;;;7.00;6.50;;;;;7.05;62.92;102629.25;5096713;27;45537;-70
2022/01/20 07:05:16;;;;;;;;;6.25;5.00;;;;;7.35;62.55;102694.03;5096801;27;45611;-71
2022/01/20 07:07:43;;;;;;;;;8.00;6.00;;;;;7.33;63.22;102693.06;5112026;27;45644;-71
2022/01/20 07:10:12;;;;;;;;;9.50;6.00;;;;;7.29;62.68;102694.66;5111581;27;46269;-71
2022/01/20 07:12:42;;;;;;;;;9.50;5.00;;;;;7.38;62.83;102713.31;5116159;27;46609;-71
2022/01/20 07:15:07;;;;;;;;;8.50;8.00;;;;;7.39;62.48;102724.63;5110166;27;45526;-71
2022/01/20 07:17:33;;;;;;;;;9.50;4.50;;;;;7.38;62.25;102728.97;5095414;27;45832;-71
2022/01/20 07:20:03;;;;;;;;;12.00;5.75;;;;;7.16;62.53;102684.44;5121538;27;45507;-72
2022/01/20 07:22:28;;;;;;;;;11.25;8.75;;;;;7.43;62.14;102734.41;5091618;27;45835;-72
2022/01/20 07:24:54;;;;;;;;;4.00;4.00;;;;;7.35;62.80;102740.94;5098366;27;45623;-71
2022/01/20 07:27:20;;;;;;;;;8.25;6.00;;;;;6.69;62.47;102625.75;5098184;27;46867;-70
2022/01/20 07:29:45;;;;;;;;;8.25;8.00;;;;;7.42;62.46;102749.13;5114319;27;45924;-71
2022/01/20 07:32:12;;;;;;;;;9.50;6.00;;;;;7.40;62.90;102742.97;5098249;27;45791;-72
2022/01/20 07:34:37;;;;;;;;;14.25;8.75;;;;;6.94;63.76;102679.94;5116780;27;46503;-70
2022/01/20 07:37:05;;;;;;;;;7.00;7.00;;;;;7.37;62.69;102728.88;5109847;27;45845;-70
2022/01/20 07:39:31;;;;;;;;;5.75;4.00;;;;;7.48;62.43;102761.56;5117032;27;46122;-72
2022/01/20 07:41:57;;;;;;;;;10.00;7.00;;;;;7.41;62.35;102734.31;5110228;27;45518;-71
2022/01/20 07:44:23;;;;;;;;;10.75;7.50;;;;;7.52;62.63;102755.69;5102357;27;46491;-71
2022/01/20 07:46:49;;;;;;;;;8.50;7.00;;;;;7.53;62.50;102744.44;5106440;27;45655;-72
2022/01/20 07:49:17;;;;;;;;;10.75;7.00;;;;;7.43;62.54;102730.06;5109231;27;45693;-73
2022/01/20 07:51:43;;;;;;;;;5.75;5.75;;;;;7.27;62.15;102675.44;5115709;27;46460;-71
2022/01/20 07:54:10;;;;;;;;;7.50;6.00;;;;;7.25;62.25;102677.06;5091168;27;45806;-73
2022/01/20 07:56:36;;;;;;;;;6.25;6.25;;;;;7.52;62.40;102732.22;5108026;27;45887;-71
2022/01/20 07:59:02;;;;;;;;;9.50;6.50;;;;;7.56;61.71;102725.41;5093963;27;47136;-72
2022/01/20 08:01:28;;;;;;;;;7.75;7.00;;;;;7.37;62.17;102689.78;5091128;27;45966;-72
2022/01/20 08:03:56;;;;;;;;;8.75;7.50;;;;;7.67;62.01;102725.94;5089212;27;45499;-72
2022/01/20 08:06:22;;;;;;;;;12.00;7.75;;;;;7.84;61.46;102743.22;5112621;27;45875;-70
2022/01/20 08:08:50;;;;;;;;;10.50;7.00;;;;;7.69;61.90;102711.22;5096721;27;46819;-73
2022/01/20 08:11:17;;;;;;;;;13.25;9.00;;;;;7.75;61.67;102715.00;5114987;27;45730;-72
2022/01/20 08:13:43;;;;;;;;;7.25;6.75;;;;;7.92;61.47;102734.00;5113801;27;45459;-71
2022/01/20 08:16:09;;;;;;;;;6.50;4.50;;;;;8.08;61.04;102736.47;5107790;27;46020;-71
2022/01/20 08:18:35;;;;;;;;;9.25;7.25;;;;;7.84;61.22;102688.44;5119554;27;45658;-71
2022/01/20 08:21:01;;;;;;;;;8.75;7.00;;;;;8.32;60.75;102754.03;5097041;27;45623;-71
2022/01/20 08:23:27;;;;;;;;;9.50;7.25;;;;;8.27;60.48;102713.78;5110723;27;45741;-72
2022/01/20 08:25:53;;;;;;;;;9.25;7.00;;;;;8.95;59.24;102716.66;5110841;27;46703;-71
2022/01/20 08:28:21;;;;;;;;;8.25;8.25;;;;;9.67;57.85;102711.59;5113519;27;45605;-71
2022/01/20 08:30:48;;;;;;;;;9.75;7.75;;;;;10.28;56.11;102752.22;5118187;27;45771;-72
2022/01/20 08:33:14;;;;;;;;;10.00;10.00;;;;;9.68;57.20;102703.81;5113746;27;45629;-72
2022/01/20 08:35:40;;;;;;;;;9.25;7.75;;;;;9.48;57.95;102712.63;5113654;27;46310;-72
2022/01/20 08:38:07;;;;;;;;;9.50;8.00;;;;;9.29;63.64;102717.16;5116725;27;46239;-73
2022/01/20 08:40:34;;;;;;;;;8.75;8.00;;;;;9.37;58.64;102742.69;5110540;27;45622;-73
2022/01/20 08:43:02;;;;;;;;;10.00;8.75;;;;;9.10;58.74;102725.09;5108841;27;46637;-73
2022/01/20 08:45:31;;;;;;;;;9.75;7.75;;;;;9.27;58.17;102772.84;5109873;27;45597;-73
2022/01/20 08:47:59;;;;;;;;;13.25;10.50;;;;;9.01;58.55;102743.91;5113955;27;46426;-72
2022/01/20 08:50:27;;;;;;;;;8.25;8.25;;;;;8.29;61.24;102633.81;5115595;27;45699;-69
2022/01/20 08:52:53;;;;;;;;;8.50;7.00;;;;;8.93;59.41;102753.19;5113801;27;46091;-72
2022/01/20 08:55:20;;;;;;;;;10.00;8.75;;;;;8.98;59.10;102777.78;5118579;27;45555;-74
2022/01/20 08:57:46;;;;;;;;;13.25;9.75;;;;;8.82;59.21;102773.63;5100088;27;45451;-73
2022/01/20 09:00:14;;;;;;;;;13.50;8.00;;;;;8.89;59.48;102778.28;5100622;27;45503;-72
2022/01/20 09:02:39;;;;;;;;;8.75;8.00;;;;;8.86;59.12;102774.66;5100886;27;45359;-71
2022/01/20 09:05:05;;;;;;;;;10.75;10.25;;;;;8.58;59.08;102718.63;5101415;27;45480;-74
2022/01/20 09:07:31;;;;;;;;;9.50;9.25;;;;;8.31;59.25;102678.28;5101421;27;45364;-72
2022/01/20 09:09:59;;;;;;;;;13.50;10.00;;;;;8.88;58.99;102773.88;5099482;27;45531;-70
2022/01/20 09:17:50;;;;;;;;;12.25;9.50;;;;;8.96;59.51;102765.47;5096606;27;45790;-71
2022/01/20 09:20:16;;;;;;;;;9.75;9.50;;;;;9.06;58.89;102783.31;5097294;27;45491;-71
2022/01/20 09:22:42;;;;;;;;;11.75;8.00;;;;;9.04;59.33;102766.66;5097224;27;45499;-73
2022/01/20 09:25:08;;;;;;;;;9.00;9.00;;;;;8.87;58.91;102734.63;5100967;27;45439;-72
2022/01/20 09:27:34;;;;;;;;;9.75;9.00;;;;;9.25;58.74;102800.63;5100924;27;45477;-74
2022/01/20 09:30:02;;;;;;;;;8.00;8.00;;;;;8.52;58.94;102673.06;5078670;27;45463;-76
2022/01/20 09:32:30;;;;;;;;;10.50;10.00;;;;;8.73;58.53;102722.72;5097649;27;45524;-76
2022/01/20 09:34:56;;;;;;;;;13.50;9.75;;;;;8.67;59.13;102718.13;5097169;27;45449;-76
2022/01/20 09:37:23;;;;;;;;;15.75;11.00;;;;;9.21;58.83;102820.56;5078434;27;45689;-75
2022/01/20 09:39:49;;;;;;;;;14.75;10.00;;;;;8.58;60.80;102712.53;5097169;27;45311;-73
2022/01/20 09:42:14;;;;;;;;;8.50;8.50;;;;;9.27;59.26;102820.78;5097153;27;45312;-81
2022/01/20 09:44:46;;;;;;;;;13.50;11.00;;;;;9.31;59.45;102820.09;5079063;27;45276;-73
2022/01/20 09:47:15;;;;;;;;;17.00;11.25;;;;;8.84;59.18;102750.19;5078138;27;47994;-74
2022/01/20 09:49:41;;;;;;;;;13.25;10.00;;;;;9.19;58.80;102792.56;5096561;27;45506;-74
2022/01/20 09:52:07;;;;;;;;;11.75;9.00;;;;;8.44;58.65;102652.75;5097060;27;45494;-74
2022/01/20 09:54:33;;;;;;;;;12.50;11.00;;;;;9.44;58.18;102820.56;5097102;27;45476;-74
2022/01/20 09:57:00;;;;;;;;;12.00;10.00;;;;;9.09;58.08;102703.31;5096973;27;45495;-72
2022/01/20 09:59:26;;;;;;;;;13.75;11.00;;;;;9.25;57.06;102678.63;5096817;27;45449;-75
2022/01/20 10:01:58;;;;;;;;;13.25;9.75;;;;;10.76;55.41;102801.94;5096379;27;45333;-74
2022/01/20 10:04:29;;;;;;;;;13.25;9.25;;;;;11.23;53.29;102718.69;5099039;27;45430;-74
2022/01/20 10:07:04;;;;;;;;;13.00;11.00;;;;;11.88;51.79;102688.25;5100422;27;45385;-74
2022/01/20 10:09:34;;;;;;;;;11.75;8.25;;;;;11.83;51.33;102613.72;5100819;27;45417;-74
2022/01/20 10:12:00;;;;;;;;;13.50;8.75;;;;;13.52;47.73;102633.50;5100667;27;45470;-74
2022/01/20 10:14:26;;;;;;;;;16.25;10.75;;;;;14.20;47.06;102727.00;5100711;27;45229;-73
2022/01/20 10:16:52;;;;;;;;;13.50;11.00;;;;;17.60;42.41;102782.28;5098330;27;46137;-72
2022/01/20 10:19:29;;;;;;;;;10.00;7.75;;;;;16.50;43.94;102769.09;5078021;27;45403;-71
2022/01/20 10:21:55;;;;;;;;;19.33;11.00;;;;;15.78;45.40;102814.09;5096669;27;45682;-72
2022/01/20 10:24:21;;;;;;;;;14.00;9.00;;;;;14.90;48.47;102801.28;5101010;27;45320;-70
2022/01/20 10:26:51;;;;;;;;;15.33;9.67;;;;;14.46;47.11;102816.25;5083447;27;46537;-71
2022/01/20 10:29:17;;;;;;;;;13.00;9.75;;;;;14.04;47.79;102827.69;5104182;27;45436;-70
2022/01/20 10:31:51;;;;;;;;;12.00;8.50;;;;;13.88;49.48;102837.91;5098845;27;45381;-73
2022/01/20 10:34:19;;;;;;;;;10.75;8.00;;;;;13.47;49.38;102843.13;5096051;27;45638;-73
2022/01/20 10:36:52;;;;;;;;;18.75;13.25;;;;;13.06;49.37;102836.81;5097311;27;46039;-73
2022/01/20 10:39:25;;;;;;;;;16.50;11.00;;;;;12.51;49.97;102815.22;5098903;27;45250;-72
2022/01/20 10:41:58;;;;;;;;;16.75;14.25;;;;;12.58;50.81;102847.84;5077836;27;45372;-71
2022/01/20 10:44:24;;;;;;;;;19.00;13.25;;;;;12.52;51.01;102836.28;5096331;27;45438;-70
2022/01/20 10:46:53;;;;;;;;;14.50;13.25;;;;;12.70;50.12;102849.03;5099288;27;45475;-71
2022/01/20 10:49:21;;;;;;;;;13.00;8.25;;;;;12.79;49.51;102851.03;5098874;27;45427;-72
2022/01/20 10:51:58;;;;;;;;;17.00;9.50;;;;;12.79;49.89;102853.66;5096213;27;45379;-70
2022/01/20 10:54:23;;;;;;;;;11.75;11.50;;;;;12.51;49.55;102820.50;5079689;27;45455;-72
2022/01/20 10:56:55;;;;;;;;;11.00;9.50;;;;;12.53;49.43;102850.34;5099738;27;45334;-72
2022/01/20 10:59:23;;;;;;;;;13.25;11.25;;;;;12.54;50.17;102854.72;5095247;27;45328;-72
2022/01/20 11:02:02;;;;;;;;;15.25;11.00;;;;;12.65;49.44;102837.53;5095274;27;45393;-72
2022/01/20 11:04:29;;;;;;;;;13.75;9.75;;;;;12.79;48.67;102821.19;5077763;27;45522;-70
2022/01/20 11:06:57;;;;;;;;;13.50;11.00;;;;;13.21;48.27;102845.06;5096810;27;45472;-71
2022/01/20 11:09:24;;;;;;;;;18.50;13.75;;;;;13.16;48.04;102823.03;5095047;27;45641;-72
2022/01/20 11:11:51;;;;;;;;;15.00;11.50;;;;;13.29;47.75;102837.44;5095441;27;45437;-72
2022/01/20 11:14:17;;;;;;;;;10.75;10.50;;;;;13.39;47.33;102846.44;5095958;27;45325;-73
2022/01/20 11:16:44;;;;;;;;;11.75;11.00;;;;;13.34;46.80;102839.31;5077506;27;46522;-72
2022/01/20 11:19:35;;;;;;;;;12.50;10.75;;;;;14.09;45.88;102811.13;5094755;27;45983;-71
2022/01/20 11:22:12;;;;;;;;;15.50;11.50;;;;;16.17;43.12;102833.06;5095650;27;45444;-71
2022/01/20 11:24:39;;;;;;;;;14.50;7.75;;;;;18.56;39.96;102800.34;5077483;27;45264;-71
2022/01/20 11:27:07;;;;;;;;;18.33;10.33;;;;;21.84;33.96;102825.41;5096633;27;45579;-72
2022/01/20 11:29:50;;;;;;;;;12.33;9.67;;;;;24.00;30.50;102813.88;5078538;27;45443;-71
2022/01/20 11:32:26;;;;;;;;;10.00;8.67;;;;;22.51;31.16;102804.97;5095154;27;45496;-71
2022/01/20 11:35:08;;;;;;;;;9.00;7.67;;;;;20.76;33.32;102821.06;5095412;27;45523;-70
2022/01/20 11:37:37;;;;;;;;;10.00;9.00;;;;;18.87;35.41;102805.72;5095184;27;45457;-71
2022/01/20 11:40:17;;;;;;;;;6.00;5.67;;;;;17.54;37.87;102814.94;5095029;27;45538;-72
2022/01/20 11:43:10;;;;;;;;;7.67;5.33;;;;;16.59;39.40;102786.81;5098817;27;45316;-70
2022/01/20 11:45:38;;;;;;;;;8.00;8.00;;;;;16.06;44.17;102815.31;5098021;27;45330;-72
2022/01/20 11:48:22;;;;;;;;;7.33;6.00;;;;;16.08;43.89;102812.69;5096993;27;46646;-72
2022/01/20 11:51:07;;;;;;;;;9.33;6.00;;;;;16.85;43.04;102813.56;5095040;27;45672;-72
2022/01/20 11:53:40;;;;;;;;;9.33;5.67;;;;;18.23;39.84;102814.41;5095465;27;45374;-72
2022/01/20 11:56:07;;;;;;;;;7.33;6.00;;;;;18.05;39.47;102812.56;5096489;27;45325;-71
2022/01/20 11:58:33;;;;;;;;;11.33;6.00;;;;;16.97;40.29;102786.31;5097543;27;46222;-71
2022/01/20 12:01:08;;;;;;;;;7.00;5.00;;;;;16.96;40.70;102814.50;5095217;27;46411;-71
2022/01/20 12:03:36;;;;;;;;;10.67;7.67;;;;;17.29;39.59;102808.59;5094951;27;45458;-71
2022/01/20 12:06:13;;;;;;;;;9.67;5.67;;;;;16.71;39.31;102798.38;5098723;27;45522;-70
2022/01/20 12:09:13;;;;;;;;;6.67;6.00;;;;;15.52;41.42;102820.69;5077628;27;46271;-71
2022/01/20 12:11:42;;;;;;;;;9.67;6.67;;;;;14.86;42.11;102828.44;5060167;27;45644;-72
2022/01/20 12:14:09;;;;;;;;;5.00;5.00;;;;;14.37;42.27;102809.91;5094658;27;45528;-71
2022/01/20 12:16:37;;;;;;;;;10.00;6.33;;;;;13.98;42.99;102804.75;5095402;27;45559;-73
2022/01/20 12:19:08;;;;;;;;;8.33;6.67;;;;;13.97;43.30;102811.75;5078985;27;47368;-73
2022/01/20 12:21:34;;;;;;;;;8.67;3.33;;;;;13.60;43.90;102841.69;5076166;27;45468;-72
2022/01/20 12:23:59;;;;;;;;;5.00;5.00;;;;;13.30;43.71;102842.72;5076317;27;45628;-72
2022/01/20 12:26:25;;;;;;;;;5.33;4.33;;;;;13.09;44.34;102821.97;5076530;27;45589;-72
2022/01/20 12:29:01;;;;;;;;;8.25;7.75;;;;;13.13;44.03;102837.00;5094809;27;46210;-70
2022/01/20 12:31:26;;;;;;;;;6.50;4.00;;;;;12.93;43.98;102827.72;5097859;27;45463;-72